sensor_id;sensor_type;location;lat;lon;timestamp;P1;durP1;ratioP1;P2;durP2;ratioP2
78664;SDS011;67981;51.022;-2.870;2024-01-07T00:01:14;5.70;;;3.33;;
78664;SDS011;67981;51.022;-2.870;2024-01-07T00:03:40;5.75;;;3.13;;
78664;SDS011;67981;51.022;-2.870;2024-01-07T00:06:07;4.47;;;2.58;;
78664;SDS011;67981;51.022;-2.870;2024-01-07T00:08:33;5.70;;;3.13;;
78664;SDS011;67981;51.022;-2.870;2024-01-07T00:10:58;8.18;;;2.72;;
78664;SDS011;67981;51.022;-2.870;2024-01-07T00:13:24;5.60;;;2.70;;
78664;SDS011;67981;51.022;-2.870;2024-01-07T00:15:49;6.55;;;3.03;;
78664;SDS011;67981;51.022;-2.870;2024-01-07T00:18:14;8.93;;;3.28;;
78664;SDS011;67981;51.022;-2.870;2024-01-07T00:20:40;5.30;;;2.72;;
78664;SDS011;67981;51.022;-2.870;2024-01-07T00:23:05;7.90;;;3.20;;
78664;SDS011;67981;51.022;-2.870;2024-01-07T00:25:31;8.52;;;2.92;;
78664;SDS011;67981;51.022;-2.870;2024-01-07T00:27:56;6.18;;;3.10;;
78664;SDS011;67981;51.022;-2.870;2024-01-07T00:30:22;5.43;;;2.55;;
78664;SDS011;67981;51.022;-2.870;2024-01-07T00:32:47;7.20;;;3.17;;
78664;SDS011;67981;51.022;-2.870;2024-01-07T00:35:16;9.25;;;3.00;;
78664;SDS011;67981;51.022;-2.870;2024-01-07T00:37:41;5.57;;;2.95;;
78664;SDS011;67981;51.022;-2.870;2024-01-07T00:40:07;4.95;;;3.00;;
78664;SDS011;67981;51.022;-2.870;2024-01-07T00:42:33;7.40;;;3.20;;
78664;SDS011;67981;51.022;-2.870;2024-01-07T00:44:58;7.43;;;3.60;;
78664;SDS011;67981;51.022;-2.870;2024-01-07T00:47:24;6.43;;;3.00;;
78664;SDS011;67981;51.022;-2.870;2024-01-07T00:49:49;7.40;;;3.28;;
78664;SDS011;67981;51.022;-2.870;2024-01-07T00:52:15;6.43;;;3.08;;
78664;SDS011;67981;51.022;-2.870;2024-01-07T00:54:40;8.48;;;3.17;;
78664;SDS011;67981;51.022;-2.870;2024-01-07T00:57:06;9.13;;;3.58;;
78664;SDS011;67981;51.022;-2.870;2024-01-07T00:59:31;7.07;;;3.90;;
78664;SDS011;67981;51.022;-2.870;2024-01-07T01:01:57;10.10;;;3.78;;
78664;SDS011;67981;51.022;-2.870;2024-01-07T01:04:22;7.57;;;3.13;;
78664;SDS011;67981;51.022;-2.870;2024-01-07T01:06:47;10.60;;;4.22;;
78664;SDS011;67981;51.022;-2.870;2024-01-07T01:09:13;6.95;;;3.53;;
78664;SDS011;67981;51.022;-2.870;2024-01-07T01:11:38;6.03;;;2.50;;
78664;SDS011;67981;51.022;-2.870;2024-01-07T01:14:04;5.78;;;3.05;;
78664;SDS011;67981;51.022;-2.870;2024-01-07T01:16:29;6.38;;;3.70;;
78664;SDS011;67981;51.022;-2.870;2024-01-07T01:18:55;8.05;;;3.33;;
78664;SDS011;67981;51.022;-2.870;2024-01-07T01:21:20;6.32;;;3.22;;
78664;SDS011;67981;51.022;-2.870;2024-01-07T01:23:46;7.60;;;3.17;;
78664;SDS011;67981;51.022;-2.870;2024-01-07T01:26:12;11.55;;;3.30;;
78664;SDS011;67981;51.022;-2.870;2024-01-07T01:28:37;5.03;;;3.05;;
78664;SDS011;67981;51.022;-2.870;2024-01-07T01:31:03;5.53;;;3.17;;
78664;SDS011;67981;51.022;-2.870;2024-01-07T01:33:28;5.35;;;3.45;;
78664;SDS011;67981;51.022;-2.870;2024-01-07T01:35:54;5.63;;;3.63;;
78664;SDS011;67981;51.022;-2.870;2024-01-07T01:38:19;6.68;;;3.17;;
78664;SDS011;67981;51.022;-2.870;2024-01-07T01:40:50;8.38;;;3.72;;
78664;SDS011;67981;51.022;-2.870;2024-01-07T01:43:26;4.93;;;3.00;;
78664;SDS011;67981;51.022;-2.870;2024-01-07T01:45:53;7.63;;;3.00;;
78664;SDS011;67981;51.022;-2.870;2024-01-07T01:48:20;7.90;;;3.78;;
78664;SDS011;67981;51.022;-2.870;2024-01-07T01:50:46;12.00;;;3.65;;
78664;SDS011;67981;51.022;-2.870;2024-01-07T01:53:12;6.97;;;3.53;;
78664;SDS011;67981;51.022;-2.870;2024-01-07T01:55:38;10.18;;;3.25;;
78664;SDS011;67981;51.022;-2.870;2024-01-07T01:58:04;8.10;;;2.90;;
78664;SDS011;67981;51.022;-2.870;2024-01-07T02:00:30;6.95;;;3.17;;
78664;SDS011;67981;51.022;-2.870;2024-01-07T02:02:56;7.38;;;3.22;;
78664;SDS011;67981;51.022;-2.870;2024-01-07T02:05:21;7.65;;;3.78;;
78664;SDS011;67981;51.022;-2.870;2024-01-07T02:07:47;6.68;;;3.78;;
78664;SDS011;67981;51.022;-2.870;2024-01-07T02:10:13;9.95;;;3.25;;
78664;SDS011;67981;51.022;-2.870;2024-01-07T02:12:39;10.05;;;4.07;;
78664;SDS011;67981;51.022;-2.870;2024-01-07T02:15:04;6.80;;;3.17;;
78664;SDS011;67981;51.022;-2.870;2024-01-07T02:17:30;5.47;;;3.35;;
78664;SDS011;67981;51.022;-2.870;2024-01-07T02:19:56;5.80;;;2.90;;
78664;SDS011;67981;51.022;-2.870;2024-01-07T02:22:22;8.38;;;3.50;;
78664;SDS011;67981;51.022;-2.870;2024-01-07T02:24:47;6.20;;;3.20;;
78664;SDS011;67981;51.022;-2.870;2024-01-07T02:27:13;5.07;;;3.15;;
78664;SDS011;67981;51.022;-2.870;2024-01-07T02:29:38;9.48;;;3.50;;
78664;SDS011;67981;51.022;-2.870;2024-01-07T02:32:04;10.45;;;3.50;;
78664;SDS011;67981;51.022;-2.870;2024-01-07T02:34:30;7.55;;;3.63;;
78664;SDS011;67981;51.022;-2.870;2024-01-07T02:36:55;13.48;;;3.33;;
78664;SDS011;67981;51.022;-2.870;2024-01-07T02:39:21;4.40;;;2.40;;
78664;SDS011;67981;51.022;-2.870;2024-01-07T02:41:46;8.68;;;4.43;;
78664;SDS011;67981;51.022;-2.870;2024-01-07T02:44:12;4.75;;;3.15;;
78664;SDS011;67981;51.022;-2.870;2024-01-07T02:46:38;6.97;;;3.20;;
78664;SDS011;67981;51.022;-2.870;2024-01-07T02:49:03;11.27;;;3.22;;
78664;SDS011;67981;51.022;-2.870;2024-01-07T02:51:28;5.53;;;3.30;;
78664;SDS011;67981;51.022;-2.870;2024-01-07T02:53:54;8.43;;;3.47;;
78664;SDS011;67981;51.022;-2.870;2024-01-07T02:56:19;4.60;;;2.70;;
78664;SDS011;67981;51.022;-2.870;2024-01-07T02:58:45;10.05;;;3.42;;
78664;SDS011;67981;51.022;-2.870;2024-01-07T03:01:10;8.20;;;3.25;;
78664;SDS011;67981;51.022;-2.870;2024-01-07T03:03:36;4.35;;;2.75;;
78664;SDS011;67981;51.022;-2.870;2024-01-07T03:06:02;7.00;;;3.90;;
78664;SDS011;67981;51.022;-2.870;2024-01-07T03:08:27;6.18;;;3.55;;
78664;SDS011;67981;51.022;-2.870;2024-01-07T03:10:53;6.70;;;3.65;;
78664;SDS011;67981;51.022;-2.870;2024-01-07T03:13:19;8.07;;;3.35;;
78664;SDS011;67981;51.022;-2.870;2024-01-07T03:15:44;7.07;;;3.38;;
78664;SDS011;67981;51.022;-2.870;2024-01-07T03:18:10;5.82;;;2.63;;
78664;SDS011;67981;51.022;-2.870;2024-01-07T03:20:35;6.30;;;3.00;;
78664;SDS011;67981;51.022;-2.870;2024-01-07T03:23:01;6.80;;;3.42;;
78664;SDS011;67981;51.022;-2.870;2024-01-07T03:25:27;10.75;;;3.60;;
78664;SDS011;67981;51.022;-2.870;2024-01-07T03:27:52;5.50;;;3.15;;
78664;SDS011;67981;51.022;-2.870;2024-01-07T03:30:18;5.97;;;3.47;;
78664;SDS011;67981;51.022;-2.870;2024-01-07T03:32:43;5.97;;;3.35;;
78664;SDS011;67981;51.022;-2.870;2024-01-07T03:35:08;14.80;;;3.80;;
78664;SDS011;67981;51.022;-2.870;2024-01-07T03:37:34;4.82;;;3.83;;
78664;SDS011;67981;51.022;-2.870;2024-01-07T03:40:00;10.35;;;3.65;;
78664;SDS011;67981;51.022;-2.870;2024-01-07T03:42:26;10.68;;;4.32;;
78664;SDS011;67981;51.022;-2.870;2024-01-07T03:44:51;6.45;;;3.70;;
78664;SDS011;67981;51.022;-2.870;2024-01-07T03:47:17;10.13;;;3.88;;
78664;SDS011;67981;51.022;-2.870;2024-01-07T03:49:42;10.30;;;3.55;;
78664;SDS011;67981;51.022;-2.870;2024-01-07T03:52:08;6.80;;;3.80;;
78664;SDS011;67981;51.022;-2.870;2024-01-07T03:54:33;6.70;;;3.80;;
78664;SDS011;67981;51.022;-2.870;2024-01-07T03:56:59;5.72;;;3.60;;
78664;SDS011;67981;51.022;-2.870;2024-01-07T03:59:25;5.97;;;3.28;;
78664;SDS011;67981;51.022;-2.870;2024-01-07T04:01:53;11.20;;;3.63;;
78664;SDS011;67981;51.022;-2.870;2024-01-07T04:04:19;10.82;;;3.65;;
78664;SDS011;67981;51.022;-2.870;2024-01-07T04:06:44;6.47;;;4.05;;
78664;SDS011;67981;51.022;-2.870;2024-01-07T04:09:10;9.10;;;3.83;;
78664;SDS011;67981;51.022;-2.870;2024-01-07T04:11:42;10.75;;;3.08;;
78664;SDS011;67981;51.022;-2.870;2024-01-07T04:14:07;6.57;;;3.50;;
78664;SDS011;67981;51.022;-2.870;2024-01-07T04:16:33;6.95;;;3.00;;
78664;SDS011;67981;51.022;-2.870;2024-01-07T04:18:59;5.28;;;3.08;;
78664;SDS011;67981;51.022;-2.870;2024-01-07T04:21:24;5.90;;;2.67;;
78664;SDS011;67981;51.022;-2.870;2024-01-07T04:23:49;8.20;;;3.30;;
78664;SDS011;67981;51.022;-2.870;2024-01-07T04:26:15;8.85;;;3.50;;
78664;SDS011;67981;51.022;-2.870;2024-01-07T04:28:41;6.18;;;3.72;;
78664;SDS011;67981;51.022;-2.870;2024-01-07T04:31:07;5.65;;;3.17;;
78664;SDS011;67981;51.022;-2.870;2024-01-07T04:33:33;4.35;;;2.45;;
78664;SDS011;67981;51.022;-2.870;2024-01-07T04:35:58;4.63;;;3.05;;
78664;SDS011;67981;51.022;-2.870;2024-01-07T04:38:25;7.32;;;4.03;;
78664;SDS011;67981;51.022;-2.870;2024-01-07T04:40:51;5.72;;;3.03;;
78664;SDS011;67981;51.022;-2.870;2024-01-07T04:43:17;5.95;;;2.83;;
78664;SDS011;67981;51.022;-2.870;2024-01-07T04:45:43;7.70;;;3.22;;
78664;SDS011;67981;51.022;-2.870;2024-01-07T04:48:08;5.07;;;3.05;;
78664;SDS011;67981;51.022;-2.870;2024-01-07T04:50:34;4.93;;;2.42;;
78664;SDS011;67981;51.022;-2.870;2024-01-07T04:52:59;6.78;;;3.92;;
78664;SDS011;67981;51.022;-2.870;2024-01-07T04:55:25;7.72;;;3.58;;
78664;SDS011;67981;51.022;-2.870;2024-01-07T04:57:50;8.40;;;3.70;;
78664;SDS011;67981;51.022;-2.870;2024-01-07T05:00:15;8.95;;;3.33;;
78664;SDS011;67981;51.022;-2.870;2024-01-07T05:02:41;8.00;;;4.75;;
78664;SDS011;67981;51.022;-2.870;2024-01-07T05:05:10;6.55;;;3.67;;
78664;SDS011;67981;51.022;-2.870;2024-01-07T05:07:35;5.82;;;3.30;;
78664;SDS011;67981;51.022;-2.870;2024-01-07T05:10:01;8.77;;;4.32;;
78664;SDS011;67981;51.022;-2.870;2024-01-07T05:12:26;7.60;;;3.80;;
78664;SDS011;67981;51.022;-2.870;2024-01-07T05:14:52;3.92;;;2.55;;
78664;SDS011;67981;51.022;-2.870;2024-01-07T05:17:17;8.32;;;3.90;;
78664;SDS011;67981;51.022;-2.870;2024-01-07T05:19:43;9.40;;;3.50;;
78664;SDS011;67981;51.022;-2.870;2024-01-07T05:22:08;5.88;;;3.55;;
78664;SDS011;67981;51.022;-2.870;2024-01-07T05:24:36;8.88;;;3.83;;
78664;SDS011;67981;51.022;-2.870;2024-01-07T05:27:03;12.93;;;4.30;;
78664;SDS011;67981;51.022;-2.870;2024-01-07T05:29:29;11.63;;;4.57;;
78664;SDS011;67981;51.022;-2.870;2024-01-07T05:31:55;8.57;;;4.43;;
78664;SDS011;67981;51.022;-2.870;2024-01-07T05:34:20;9.90;;;5.32;;
78664;SDS011;67981;51.022;-2.870;2024-01-07T05:36:45;8.82;;;5.05;;
78664;SDS011;67981;51.022;-2.870;2024-01-07T05:39:11;10.82;;;3.17;;
78664;SDS011;67981;51.022;-2.870;2024-01-07T05:41:37;12.32;;;4.47;;
78664;SDS011;67981;51.022;-2.870;2024-01-07T05:44:05;13.25;;;4.40;;
78664;SDS011;67981;51.022;-2.870;2024-01-07T05:46:33;11.80;;;5.13;;
78664;SDS011;67981;51.022;-2.870;2024-01-07T05:48:58;7.40;;;4.20;;
78664;SDS011;67981;51.022;-2.870;2024-01-07T05:51:24;13.85;;;6.10;;
78664;SDS011;67981;51.022;-2.870;2024-01-07T05:53:49;8.35;;;4.72;;
78664;SDS011;67981;51.022;-2.870;2024-01-07T05:56:15;10.35;;;4.75;;
78664;SDS011;67981;51.022;-2.870;2024-01-07T05:58:40;9.10;;;5.10;;
78664;SDS011;67981;51.022;-2.870;2024-01-07T06:01:06;5.72;;;4.85;;
78664;SDS011;67981;51.022;-2.870;2024-01-07T06:03:34;10.77;;;5.13;;
78664;SDS011;67981;51.022;-2.870;2024-01-07T06:05:59;11.40;;;5.20;;
78664;SDS011;67981;51.022;-2.870;2024-01-07T06:08:27;9.65;;;4.93;;
78664;SDS011;67981;51.022;-2.870;2024-01-07T06:10:53;6.95;;;4.10;;
78664;SDS011;67981;51.022;-2.870;2024-01-07T06:13:18;13.63;;;4.70;;
78664;SDS011;67981;51.022;-2.870;2024-01-07T06:15:44;15.32;;;5.85;;
78664;SDS011;67981;51.022;-2.870;2024-01-07T06:18:09;8.88;;;5.53;;
78664;SDS011;67981;51.022;-2.870;2024-01-07T06:20:35;13.77;;;6.32;;
78664;SDS011;67981;51.022;-2.870;2024-01-07T06:23:00;8.98;;;4.97;;
78664;SDS011;67981;51.022;-2.870;2024-01-07T06:25:26;8.52;;;5.45;;
78664;SDS011;67981;51.022;-2.870;2024-01-07T06:27:51;10.38;;;5.60;;
78664;SDS011;67981;51.022;-2.870;2024-01-07T06:30:17;11.32;;;5.93;;
78664;SDS011;67981;51.022;-2.870;2024-01-07T06:32:44;8.02;;;5.30;;
78664;SDS011;67981;51.022;-2.870;2024-01-07T06:35:10;11.88;;;5.40;;
78664;SDS011;67981;51.022;-2.870;2024-01-07T06:37:36;11.02;;;6.50;;
78664;SDS011;67981;51.022;-2.870;2024-01-07T06:40:02;10.50;;;5.43;;
78664;SDS011;67981;51.022;-2.870;2024-01-07T06:42:28;13.75;;;5.65;;
78664;SDS011;67981;51.022;-2.870;2024-01-07T06:44:53;13.45;;;6.82;;
78664;SDS011;67981;51.022;-2.870;2024-01-07T06:47:19;15.13;;;6.88;;
78664;SDS011;67981;51.022;-2.870;2024-01-07T06:49:44;10.90;;;5.55;;
78664;SDS011;67981;51.022;-2.870;2024-01-07T06:52:10;14.40;;;7.38;;
78664;SDS011;67981;51.022;-2.870;2024-01-07T06:54:35;15.52;;;6.50;;
78664;SDS011;67981;51.022;-2.870;2024-01-07T06:57:01;14.77;;;6.95;;
78664;SDS011;67981;51.022;-2.870;2024-01-07T06:59:27;12.38;;;7.13;;
78664;SDS011;67981;51.022;-2.870;2024-01-07T07:01:53;15.93;;;7.78;;
78664;SDS011;67981;51.022;-2.870;2024-01-07T07:04:20;13.93;;;7.43;;
78664;SDS011;67981;51.022;-2.870;2024-01-07T07:06:45;13.25;;;7.30;;
78664;SDS011;67981;51.022;-2.870;2024-01-07T07:09:11;16.48;;;7.60;;
78664;SDS011;67981;51.022;-2.870;2024-01-07T07:11:37;16.55;;;8.57;;
78664;SDS011;67981;51.022;-2.870;2024-01-07T07:14:03;15.20;;;7.10;;
78664;SDS011;67981;51.022;-2.870;2024-01-07T07:16:28;15.68;;;7.68;;
78664;SDS011;67981;51.022;-2.870;2024-01-07T07:18:54;11.10;;;6.75;;
78664;SDS011;67981;51.022;-2.870;2024-01-07T07:21:19;20.05;;;8.38;;
78664;SDS011;67981;51.022;-2.870;2024-01-07T07:23:45;12.77;;;7.47;;
78664;SDS011;67981;51.022;-2.870;2024-01-07T07:26:10;17.08;;;9.18;;
78664;SDS011;67981;51.022;-2.870;2024-01-07T07:28:35;15.23;;;7.97;;
78664;SDS011;67981;51.022;-2.870;2024-01-07T07:31:01;17.67;;;7.53;;
78664;SDS011;67981;51.022;-2.870;2024-01-07T07:33:26;22.15;;;10.95;;
78664;SDS011;67981;51.022;-2.870;2024-01-07T07:35:52;17.25;;;8.95;;
78664;SDS011;67981;51.022;-2.870;2024-01-07T07:38:17;15.30;;;7.38;;
78664;SDS011;67981;51.022;-2.870;2024-01-07T07:40:42;21.65;;;7.93;;
78664;SDS011;67981;51.022;-2.870;2024-01-07T07:43:09;21.02;;;9.45;;
78664;SDS011;67981;51.022;-2.870;2024-01-07T07:45:35;17.67;;;9.82;;
78664;SDS011;67981;51.022;-2.870;2024-01-07T07:48:00;19.05;;;9.43;;
78664;SDS011;67981;51.022;-2.870;2024-01-07T07:50:26;17.38;;;9.32;;
78664;SDS011;67981;51.022;-2.870;2024-01-07T07:52:51;19.90;;;10.00;;
78664;SDS011;67981;51.022;-2.870;2024-01-07T07:55:16;22.48;;;10.10;;
78664;SDS011;67981;51.022;-2.870;2024-01-07T07:57:42;18.88;;;10.70;;
78664;SDS011;67981;51.022;-2.870;2024-01-07T08:00:07;21.30;;;10.05;;
78664;SDS011;67981;51.022;-2.870;2024-01-07T08:02:37;20.70;;;10.40;;
78664;SDS011;67981;51.022;-2.870;2024-01-07T08:05:03;16.65;;;9.80;;
78664;SDS011;67981;51.022;-2.870;2024-01-07T08:07:29;23.80;;;10.85;;
78664;SDS011;67981;51.022;-2.870;2024-01-07T08:09:54;19.60;;;9.60;;
78664;SDS011;67981;51.022;-2.870;2024-01-07T08:12:22;18.10;;;9.45;;
78664;SDS011;67981;51.022;-2.870;2024-01-07T08:14:47;15.63;;;8.63;;
78664;SDS011;67981;51.022;-2.870;2024-01-07T08:17:12;16.92;;;9.57;;
78664;SDS011;67981;51.022;-2.870;2024-01-07T08:19:38;18.33;;;8.20;;
78664;SDS011;67981;51.022;-2.870;2024-01-07T08:22:03;16.27;;;7.75;;
78664;SDS011;67981;51.022;-2.870;2024-01-07T08:24:29;15.43;;;8.30;;
78664;SDS011;67981;51.022;-2.870;2024-01-07T08:26:55;18.70;;;9.13;;
78664;SDS011;67981;51.022;-2.870;2024-01-07T08:29:20;21.48;;;9.80;;
78664;SDS011;67981;51.022;-2.870;2024-01-07T08:31:45;11.88;;;6.93;;
78664;SDS011;67981;51.022;-2.870;2024-01-07T08:34:11;18.02;;;8.30;;
78664;SDS011;67981;51.022;-2.870;2024-01-07T08:36:36;16.73;;;7.90;;
78664;SDS011;67981;51.022;-2.870;2024-01-07T08:39:02;18.55;;;8.02;;
78664;SDS011;67981;51.022;-2.870;2024-01-07T08:41:27;14.25;;;8.88;;
78664;SDS011;67981;51.022;-2.870;2024-01-07T08:43:52;15.75;;;8.82;;
78664;SDS011;67981;51.022;-2.870;2024-01-07T08:46:21;15.45;;;7.78;;
78664;SDS011;67981;51.022;-2.870;2024-01-07T08:48:46;14.93;;;9.00;;
78664;SDS011;67981;51.022;-2.870;2024-01-07T08:51:12;22.40;;;9.45;;
78664;SDS011;67981;51.022;-2.870;2024-01-07T08:53:38;18.33;;;8.02;;
78664;SDS011;67981;51.022;-2.870;2024-01-07T08:56:04;11.23;;;6.40;;
78664;SDS011;67981;51.022;-2.870;2024-01-07T08:58:31;25.02;;;8.88;;
78664;SDS011;67981;51.022;-2.870;2024-01-07T09:00:57;17.23;;;8.73;;
78664;SDS011;67981;51.022;-2.870;2024-01-07T09:03:22;17.55;;;8.13;;
78664;SDS011;67981;51.022;-2.870;2024-01-07T09:05:48;15.02;;;7.88;;
78664;SDS011;67981;51.022;-2.870;2024-01-07T09:08:13;20.15;;;9.30;;
78664;SDS011;67981;51.022;-2.870;2024-01-07T09:10:39;16.25;;;7.95;;
78664;SDS011;67981;51.022;-2.870;2024-01-07T09:13:05;14.70;;;7.63;;
78664;SDS011;67981;51.022;-2.870;2024-01-07T09:15:31;15.75;;;8.05;;
78664;SDS011;67981;51.022;-2.870;2024-01-07T09:17:56;12.23;;;7.97;;
78664;SDS011;67981;51.022;-2.870;2024-01-07T09:20:21;19.60;;;9.52;;
78664;SDS011;67981;51.022;-2.870;2024-01-07T09:22:47;15.90;;;8.60;;
78664;SDS011;67981;51.022;-2.870;2024-01-07T09:25:13;17.13;;;7.82;;
78664;SDS011;67981;51.022;-2.870;2024-01-07T09:27:39;14.23;;;7.90;;
78664;SDS011;67981;51.022;-2.870;2024-01-07T09:30:04;14.35;;;7.88;;
78664;SDS011;67981;51.022;-2.870;2024-01-07T09:32:30;13.73;;;6.00;;
78664;SDS011;67981;51.022;-2.870;2024-01-07T09:34:56;10.52;;;7.30;;
78664;SDS011;67981;51.022;-2.870;2024-01-07T09:37:22;12.65;;;6.40;;
78664;SDS011;67981;51.022;-2.870;2024-01-07T09:39:48;10.15;;;6.07;;
78664;SDS011;67981;51.022;-2.870;2024-01-07T09:42:17;9.43;;;5.20;;
78664;SDS011;67981;51.022;-2.870;2024-01-07T09:44:43;10.65;;;5.18;;
78664;SDS011;67981;51.022;-2.870;2024-01-07T09:47:13;6.85;;;4.65;;
78664;SDS011;67981;51.022;-2.870;2024-01-07T09:49:40;7.32;;;4.13;;
78664;SDS011;67981;51.022;-2.870;2024-01-07T09:52:07;6.63;;;5.32;;
78664;SDS011;67981;51.022;-2.870;2024-01-07T09:54:35;8.88;;;4.05;;
78664;SDS011;67981;51.022;-2.870;2024-01-07T09:59:29;7.72;;;4.78;;
78664;SDS011;67981;51.022;-2.870;2024-01-07T10:01:55;9.77;;;4.03;;
78664;SDS011;67981;51.022;-2.870;2024-01-07T10:04:22;8.63;;;3.97;;
78664;SDS011;67981;51.022;-2.870;2024-01-07T10:06:48;7.32;;;3.50;;
78664;SDS011;67981;51.022;-2.870;2024-01-07T10:09:14;8.52;;;3.45;;
78664;SDS011;67981;51.022;-2.870;2024-01-07T10:11:40;6.78;;;3.60;;
78664;SDS011;67981;51.022;-2.870;2024-01-07T10:14:06;8.55;;;3.58;;
78664;SDS011;67981;51.022;-2.870;2024-01-07T10:16:32;5.25;;;3.17;;
78664;SDS011;67981;51.022;-2.870;2024-01-07T10:18:58;6.97;;;3.20;;
78664;SDS011;67981;51.022;-2.870;2024-01-07T10:21:23;4.47;;;3.13;;
78664;SDS011;67981;51.022;-2.870;2024-01-07T10:23:49;6.00;;;3.33;;
78664;SDS011;67981;51.022;-2.870;2024-01-07T10:26:15;5.07;;;2.78;;
78664;SDS011;67981;51.022;-2.870;2024-01-07T10:28:40;11.90;;;5.80;;
78664;SDS011;67981;51.022;-2.870;2024-01-07T10:31:06;6.80;;;4.03;;
78664;SDS011;67981;51.022;-2.870;2024-01-07T10:33:31;13.27;;;7.93;;
78664;SDS011;67981;51.022;-2.870;2024-01-07T10:36:01;12.23;;;5.57;;
78664;SDS011;67981;51.022;-2.870;2024-01-07T10:38:29;4.00;;;2.47;;
78664;SDS011;67981;51.022;-2.870;2024-01-07T10:40:55;8.60;;;5.10;;
78664;SDS011;67981;51.022;-2.870;2024-01-07T10:43:23;4.80;;;3.42;;
78664;SDS011;67981;51.022;-2.870;2024-01-07T10:45:49;2.88;;;1.77;;
78664;SDS011;67981;51.022;-2.870;2024-01-07T10:48:17;5.85;;;2.28;;
78664;SDS011;67981;51.022;-2.870;2024-01-07T10:50:44;5.82;;;2.88;;
78664;SDS011;67981;51.022;-2.870;2024-01-07T10:53:12;4.60;;;3.17;;
78664;SDS011;67981;51.022;-2.870;2024-01-07T10:55:40;3.08;;;2.22;;
78664;SDS011;67981;51.022;-2.870;2024-01-07T10:58:13;3.67;;;2.35;;
78664;SDS011;67981;51.022;-2.870;2024-01-07T11:00:39;3.28;;;2.17;;
78664;SDS011;67981;51.022;-2.870;2024-01-07T11:05:59;2.63;;;1.73;;
78664;SDS011;67981;51.022;-2.870;2024-01-07T11:11:16;2.90;;;1.60;;
78664;SDS011;67981;51.022;-2.870;2024-01-07T11:13:43;2.17;;;1.08;;
78664;SDS011;67981;51.022;-2.870;2024-01-07T11:16:09;2.30;;;1.85;;
78664;SDS011;67981;51.022;-2.870;2024-01-07T11:18:39;3.63;;;1.70;;
78664;SDS011;67981;51.022;-2.870;2024-01-07T11:21:05;2.63;;;1.27;;
78664;SDS011;67981;51.022;-2.870;2024-01-07T11:23:34;2.70;;;1.48;;
78664;SDS011;67981;51.022;-2.870;2024-01-07T11:26:05;4.40;;;1.92;;
78664;SDS011;67981;51.022;-2.870;2024-01-07T11:31:24;4.35;;;0.93;;
78664;SDS011;67981;51.022;-2.870;2024-01-07T11:34:07;6.55;;;2.60;;
78664;SDS011;67981;51.022;-2.870;2024-01-07T11:36:34;1.13;;;0.93;;
78664;SDS011;67981;51.022;-2.870;2024-01-07T11:39:00;4.00;;;0.90;;
78664;SDS011;67981;51.022;-2.870;2024-01-07T11:41:27;4.32;;;1.35;;
78664;SDS011;67981;51.022;-2.870;2024-01-07T11:43:57;2.08;;;0.93;;
78664;SDS011;67981;51.022;-2.870;2024-01-07T11:46:24;1.45;;;0.77;;
78664;SDS011;67981;51.022;-2.870;2024-01-07T11:48:55;2.42;;;1.08;;
78664;SDS011;67981;51.022;-2.870;2024-01-07T11:51:28;1.75;;;0.90;;
78664;SDS011;67981;51.022;-2.870;2024-01-07T11:53:55;4.30;;;0.98;;
78664;SDS011;67981;51.022;-2.870;2024-01-07T11:56:21;1.90;;;1.25;;
78664;SDS011;67981;51.022;-2.870;2024-01-07T11:58:47;1.25;;;0.80;;
78664;SDS011;67981;51.022;-2.870;2024-01-07T12:01:14;7.07;;;3.08;;
78664;SDS011;67981;51.022;-2.870;2024-01-07T12:03:41;4.28;;;3.58;;
78664;SDS011;67981;51.022;-2.870;2024-01-07T12:06:09;6.30;;;4.22;;
78664;SDS011;67981;51.022;-2.870;2024-01-07T12:08:38;3.85;;;1.73;;
78664;SDS011;67981;51.022;-2.870;2024-01-07T12:11:04;2.38;;;1.20;;
78664;SDS011;67981;51.022;-2.870;2024-01-07T12:13:30;2.95;;;0.80;;
78664;SDS011;67981;51.022;-2.870;2024-01-07T12:15:56;2.63;;;1.33;;
78664;SDS011;67981;51.022;-2.870;2024-01-07T12:18:22;2.47;;;1.58;;
78664;SDS011;67981;51.022;-2.870;2024-01-07T12:23:25;1.75;;;0.82;;
78664;SDS011;67981;51.022;-2.870;2024-01-07T12:25:52;2.40;;;1.40;;
78664;SDS011;67981;51.022;-2.870;2024-01-07T12:28:18;2.60;;;2.00;;
78664;SDS011;67981;51.022;-2.870;2024-01-07T12:30:44;9.52;;;4.95;;
78664;SDS011;67981;51.022;-2.870;2024-01-07T12:33:09;3.63;;;1.60;;
78664;SDS011;67981;51.022;-2.870;2024-01-07T12:35:35;5.55;;;2.60;;
78664;SDS011;67981;51.022;-2.870;2024-01-07T12:38:01;2.47;;;1.50;;
78664;SDS011;67981;51.022;-2.870;2024-01-07T12:40:27;3.72;;;2.65;;
78664;SDS011;67981;51.022;-2.870;2024-01-07T12:42:53;4.28;;;2.40;;
78664;SDS011;67981;51.022;-2.870;2024-01-07T12:45:18;3.20;;;2.35;;
78664;SDS011;67981;51.022;-2.870;2024-01-07T12:47:44;1.67;;;0.90;;
78664;SDS011;67981;51.022;-2.870;2024-01-07T12:50:10;2.03;;;1.08;;
78664;SDS011;67981;51.022;-2.870;2024-01-07T12:52:37;1.58;;;0.90;;
78664;SDS011;67981;51.022;-2.870;2024-01-07T12:55:06;2.63;;;1.50;;
78664;SDS011;67981;51.022;-2.870;2024-01-07T12:57:32;4.90;;;2.30;;
78664;SDS011;67981;51.022;-2.870;2024-01-07T12:59:58;7.32;;;3.22;;
78664;SDS011;67981;51.022;-2.870;2024-01-07T13:02:24;4.32;;;0.82;;
78664;SDS011;67981;51.022;-2.870;2024-01-07T13:04:50;0.88;;;0.65;;
78664;SDS011;67981;51.022;-2.870;2024-01-07T13:07:16;3.15;;;1.90;;
78664;SDS011;67981;51.022;-2.870;2024-01-07T13:09:41;4.28;;;2.30;;
78664;SDS011;67981;51.022;-2.870;2024-01-07T13:12:09;3.45;;;1.35;;
78664;SDS011;67981;51.022;-2.870;2024-01-07T13:14:35;3.92;;;2.63;;
78664;SDS011;67981;51.022;-2.870;2024-01-07T13:17:00;11.32;;;6.82;;
78664;SDS011;67981;51.022;-2.870;2024-01-07T13:19:26;5.20;;;2.00;;
78664;SDS011;67981;51.022;-2.870;2024-01-07T13:21:52;3.75;;;2.83;;
78664;SDS011;67981;51.022;-2.870;2024-01-07T13:24:20;3.05;;;1.70;;
78664;SDS011;67981;51.022;-2.870;2024-01-07T13:26:45;2.25;;;1.50;;
78664;SDS011;67981;51.022;-2.870;2024-01-07T13:29:11;1.95;;;1.15;;
78664;SDS011;67981;51.022;-2.870;2024-01-07T13:31:36;3.17;;;1.35;;
78664;SDS011;67981;51.022;-2.870;2024-01-07T13:34:02;1.45;;;1.33;;
78664;SDS011;67981;51.022;-2.870;2024-01-07T13:36:27;3.47;;;1.88;;
78664;SDS011;67981;51.022;-2.870;2024-01-07T13:38:52;1.73;;;1.30;;
78664;SDS011;67981;51.022;-2.870;2024-01-07T13:41:18;3.30;;;1.92;;
78664;SDS011;67981;51.022;-2.870;2024-01-07T13:43:43;1.10;;;0.80;;
78664;SDS011;67981;51.022;-2.870;2024-01-07T13:46:09;2.05;;;1.08;;
78664;SDS011;67981;51.022;-2.870;2024-01-07T13:48:34;2.33;;;1.00;;
78664;SDS011;67981;51.022;-2.870;2024-01-07T13:51:00;2.72;;;1.17;;
78664;SDS011;67981;51.022;-2.870;2024-01-07T13:53:25;1.33;;;0.85;;
78664;SDS011;67981;51.022;-2.870;2024-01-07T13:55:51;1.88;;;1.05;;
78664;SDS011;67981;51.022;-2.870;2024-01-07T13:58:16;2.63;;;0.65;;
78664;SDS011;67981;51.022;-2.870;2024-01-07T14:00:42;7.27;;;4.70;;
78664;SDS011;67981;51.022;-2.870;2024-01-07T14:03:07;2.38;;;1.25;;
78664;SDS011;67981;51.022;-2.870;2024-01-07T14:05:33;1.35;;;0.73;;
78664;SDS011;67981;51.022;-2.870;2024-01-07T14:07:58;2.20;;;1.05;;
78664;SDS011;67981;51.022;-2.870;2024-01-07T14:10:23;1.23;;;0.90;;
78664;SDS011;67981;51.022;-2.870;2024-01-07T14:12:49;4.45;;;1.20;;
78664;SDS011;67981;51.022;-2.870;2024-01-07T14:15:14;3.08;;;1.17;;
78664;SDS011;67981;51.022;-2.870;2024-01-07T14:17:42;2.38;;;1.20;;
78664;SDS011;67981;51.022;-2.870;2024-01-07T14:20:08;7.82;;;3.97;;
78664;SDS011;67981;51.022;-2.870;2024-01-07T14:22:34;2.50;;;1.60;;
78664;SDS011;67981;51.022;-2.870;2024-01-07T14:25:00;1.65;;;1.10;;
78664;SDS011;67981;51.022;-2.870;2024-01-07T14:27:25;1.63;;;1.17;;
78664;SDS011;67981;51.022;-2.870;2024-01-07T14:29:52;4.63;;;1.70;;
78664;SDS011;67981;51.022;-2.870;2024-01-07T14:32:17;1.27;;;0.98;;
78664;SDS011;67981;51.022;-2.870;2024-01-07T14:34:43;6.18;;;2.55;;
78664;SDS011;67981;51.022;-2.870;2024-01-07T14:37:09;3.25;;;2.30;;